2020-09-24 - 01:33:00

SR: 0519 - SS: 1723

RWY: 25


OBSERVATION: n/a

RVR Mean 1 min: (Runway Visual Range)
A: P2000 - B: P2000 - C: P2000
RVR Mean 10 min:
A: P2000 - B: P2000 - C: P2000
WARNING: n/a
W25: 170-220(200-05kt) 03kt-08kt
W07: 170-250(220-04kt) 02kt-07kt
OTHER: n/a

QFE: (tatsächlicher Luftdruck) 993.5 hPa = 29.32 inHg
QNH:(Luftdruck auf Meereshöhe) 999.2 hPa = 29.50 inHg
Temperatur: 16.1 °C
Dew point(Taupunkt): 14.7 °C

METAR:  00580 SADL31 EDDG 240120 METAR EDDG 240120Z 21005KT 160V230 9999 -RA FEW022 BKN034 16/15 Q0999 NOSIG= 
METAR (aus weather.noaa.gov):
2020/09/24 01:20 EDDG 240120Z 21005KT 160V230 9999 -RA FEW022 BKN034 16/15 Q0999 NOSIG

TAF (aus weather.noaa.gov):
2020/09/23 18:27 TAF EDDG 231700Z 2318/2418 17005KT 9999 SCT040 TEMPO 2401/2405 26020G30KT SHRA BKN030CB PROB30 TEMPO 2401/2404 2500 TSRA BKN025CB BECMG 2401/2404 23010KT BECMG 2407/2410 22015G25KT BECMG 2413/2416 19010KT BECMG 2416/2418 15005KT
NOWCAST
480
FODL44 EDDG 240100
FODL44 EDDG 2009240105
# Nowcasting EDDG 24.09.2020 01:05 UTC
Parameter/Stunde02030405060708
Windrichtung190200210210210210220
Windgeschwindigkeit8999101011
Böen--------------
Lufttemperatur17161515141415
Taupunkt13131211101010
Belagstemperatur16141413121315
Wetter-vorherrschend-RA-RA-RA-RA------
QNH 998 99910001001100210031004
Wind in 5000 ft240/40240/35240/40250/35250/35250/35250/30
Wind in 3000 ft240/35250/35250/30260/35260/30250/30250/30
Wind in 2000 ft220/35240/30250/30250/30240/30240/30230/20
Wind in 1000 ft210/25230/25250/25240/25240/25240/25230/20